createdAt,value
2022-09-13T00:00:25.532Z,20.90
2022-09-13T00:01:25.580Z,20.25
2022-09-13T00:02:25.552Z,20.58
2022-09-13T00:03:25.503Z,19.29
2022-09-13T00:04:25.475Z,18.96
2022-09-13T00:05:25.470Z,20.25
2022-09-13T00:06:25.454Z,18.32
2022-09-13T00:07:25.444Z,18.32
2022-09-13T00:08:25.430Z,18.64
2022-09-13T00:09:25.441Z,19.93
2022-09-13T00:10:25.417Z,18.64
2022-09-13T00:11:25.391Z,18.32
2022-09-13T00:12:25.375Z,18.32
2022-09-13T00:13:25.370Z,18.32
2022-09-13T00:14:25.348Z,17.35
2022-09-13T00:15:25.348Z,18.00
2022-09-13T00:16:25.373Z,18.00
2022-09-13T00:17:25.311Z,19.93
2022-09-13T00:18:25.291Z,17.68
2022-09-13T00:19:25.287Z,18.96
2022-09-13T00:20:25.267Z,18.96
2022-09-13T00:21:25.255Z,18.00
2022-09-13T00:22:25.243Z,16.71
2022-09-13T00:23:25.235Z,17.35
2022-09-13T00:24:25.210Z,18.00
2022-09-13T00:25:25.224Z,18.32
2022-09-13T00:26:25.199Z,18.96
2022-09-13T00:27:25.173Z,19.29
2022-09-13T00:28:25.167Z,18.00
2022-09-13T00:29:25.150Z,20.90
2022-09-13T00:30:25.139Z,19.93
2022-09-13T00:31:25.204Z,17.68
2022-09-13T00:32:25.113Z,18.96
2022-09-13T00:33:25.102Z,17.03
2022-09-13T00:34:25.088Z,20.25
2022-09-13T00:35:25.072Z,19.29
2022-09-13T00:36:25.061Z,18.32
2022-09-13T00:37:25.054Z,19.61
2022-09-13T00:38:25.039Z,17.35
2022-09-13T00:39:25.022Z,18.64
2022-09-13T00:40:25.070Z,17.03
2022-09-13T00:41:25.211Z,19.93
2022-09-13T00:42:24.974Z,18.96
2022-09-13T00:43:24.972Z,17.68
2022-09-13T00:44:24.949Z,18.64
2022-09-13T00:45:24.989Z,17.35
2022-09-13T00:46:24.927Z,18.32
2022-09-13T00:47:24.917Z,19.29
2022-09-13T00:48:24.900Z,18.96
2022-09-13T00:49:24.894Z,17.35
2022-09-13T00:50:24.875Z,18.00
2022-09-13T00:51:24.869Z,19.29
2022-09-13T00:52:24.847Z,19.93
2022-09-13T00:53:24.843Z,20.25
2022-09-13T00:54:24.827Z,22.19
2022-09-13T00:55:24.814Z,18.64
2022-09-13T00:56:24.801Z,17.68
2022-09-13T00:57:24.801Z,18.00
2022-09-13T00:58:24.763Z,18.64
2022-09-13T00:59:24.754Z,19.29
2022-09-13T01:00:24.739Z,19.29
2022-09-13T01:01:24.772Z,17.35
2022-09-13T01:02:24.741Z,18.96
2022-09-13T01:03:24.700Z,18.00
2022-09-13T01:04:24.687Z,17.03
2022-09-13T01:05:24.685Z,18.00
2022-09-13T01:06:24.663Z,19.29
2022-09-13T01:07:24.654Z,18.96
2022-09-13T01:08:24.640Z,18.32
2022-09-13T01:09:24.631Z,18.64
2022-09-13T01:10:24.611Z,16.39
2022-09-13T01:11:24.596Z,18.32
2022-09-13T01:12:24.581Z,18.00
2022-09-13T01:13:24.678Z,18.64
2022-09-13T01:14:24.556Z,18.32
2022-09-13T01:15:24.547Z,18.64
2022-09-13T01:16:24.559Z,18.64
2022-09-13T01:17:24.521Z,18.64
2022-09-13T01:18:24.504Z,18.32
2022-09-13T01:19:24.490Z,20.25
2022-09-13T01:20:24.478Z,20.25
2022-09-13T01:21:24.466Z,18.96
2022-09-13T01:22:24.444Z,18.64
2022-09-13T01:23:24.438Z,17.03
2022-09-13T01:24:24.417Z,19.61
2022-09-13T01:25:24.417Z,18.96
2022-09-13T01:26:24.392Z,17.03
2022-09-13T01:27:24.386Z,16.71
2022-09-13T01:28:24.365Z,17.03
2022-09-13T01:29:24.378Z,18.64
2022-09-13T01:30:24.342Z,18.00
2022-09-13T01:31:24.357Z,17.03
2022-09-13T01:32:24.319Z,17.03
2022-09-13T01:34:15.370Z,17.35
2022-09-13T01:35:15.354Z,18.64
2022-09-13T01:36:15.340Z,19.61
2022-09-13T01:37:15.323Z,18.32
2022-09-13T01:38:15.318Z,18.32
2022-09-13T01:39:15.301Z,18.96
2022-09-13T01:40:15.346Z,18.96
2022-09-13T01:41:15.272Z,16.06
2022-09-13T01:42:15.268Z,20.25
2022-09-13T01:43:15.246Z,17.68
2022-09-13T01:44:15.233Z,15.74
2022-09-13T01:45:15.237Z,17.35
2022-09-13T01:46:15.208Z,17.68
2022-09-13T01:47:15.187Z,16.71
2022-09-13T01:48:15.179Z,19.93
2022-09-13T01:49:15.165Z,16.71
2022-09-13T01:50:15.155Z,18.96
2022-09-13T01:51:15.136Z,19.61
2022-09-13T01:52:15.125Z,18.64
2022-09-13T01:53:15.108Z,17.03
2022-09-13T01:54:15.092Z,18.96
2022-09-13T01:55:15.080Z,18.64
2022-09-13T01:56:15.073Z,17.03
2022-09-13T01:57:15.051Z,19.93
2022-09-13T01:58:15.038Z,19.29
2022-09-13T01:59:15.029Z,18.96
2022-09-13T02:00:15.011Z,18.64
2022-09-13T02:01:15.109Z,18.96
2022-09-13T02:02:15.073Z,19.29
2022-09-13T02:03:14.982Z,16.71
2022-09-13T02:04:14.964Z,17.68
2022-09-13T02:05:14.951Z,18.32
2022-09-13T02:06:14.939Z,19.61
2022-09-13T02:07:14.924Z,17.03
2022-09-13T02:08:14.911Z,19.29
2022-09-13T02:09:17.536Z,17.68
2022-09-13T02:10:14.879Z,19.61
2022-09-13T02:11:14.861Z,17.35
2022-09-13T02:12:14.853Z,17.03
2022-09-13T02:13:14.840Z,18.96
2022-09-13T02:14:14.826Z,18.00
2022-09-13T02:15:14.809Z,16.39
2022-09-13T02:16:14.823Z,18.00
2022-09-13T02:17:14.801Z,16.71
2022-09-13T02:18:14.773Z,17.68
2022-09-13T02:19:14.764Z,18.00
2022-09-13T02:20:14.750Z,18.32
2022-09-13T02:21:14.732Z,17.03
2022-09-13T02:22:14.714Z,19.29
2022-09-13T02:23:14.704Z,16.39
2022-09-13T02:24:14.685Z,18.32
2022-09-13T02:25:14.679Z,16.71
2022-09-13T02:26:14.661Z,16.06
2022-09-13T02:27:14.653Z,19.61
2022-09-13T02:28:14.637Z,18.00
2022-09-13T02:29:14.626Z,18.64
2022-09-13T02:30:14.610Z,18.32
2022-09-13T02:31:14.632Z,17.35
2022-09-13T02:32:14.583Z,17.03
2022-09-13T02:33:14.588Z,17.35
2022-09-13T02:34:14.549Z,18.64
2022-09-13T02:35:14.537Z,17.68
2022-09-13T02:36:14.521Z,17.35
2022-09-13T02:37:14.513Z,17.68
2022-09-13T02:38:14.903Z,18.00
2022-09-13T02:39:14.483Z,21.22
2022-09-13T02:40:14.521Z,17.68
2022-09-13T02:41:14.460Z,19.61
2022-09-13T02:42:14.447Z,18.32
2022-09-13T02:43:14.427Z,16.39
2022-09-13T02:44:14.417Z,16.39
2022-09-13T02:45:14.398Z,18.00
2022-09-13T02:46:14.389Z,16.39
2022-09-13T02:47:14.376Z,18.64
2022-09-13T02:48:14.375Z,16.71
2022-09-13T02:49:14.365Z,17.03
2022-09-13T02:50:14.339Z,19.29
2022-09-13T02:51:14.321Z,16.71
2022-09-13T02:52:14.312Z,18.00
2022-09-13T02:53:14.295Z,17.03
2022-09-13T02:54:14.280Z,17.03
2022-09-13T02:55:14.262Z,17.03
2022-09-13T02:56:14.254Z,17.35
2022-09-13T02:57:14.234Z,16.39
2022-09-13T02:58:14.227Z,16.39
2022-09-13T02:59:14.214Z,15.74
2022-09-13T03:00:14.204Z,18.00
2022-09-13T03:01:14.236Z,20.90
2022-09-13T03:02:14.232Z,17.68
2022-09-13T03:03:14.157Z,16.71
2022-09-13T03:04:14.148Z,17.68
2022-09-13T03:05:14.152Z,17.35
2022-09-13T03:06:14.118Z,18.64
2022-09-13T03:07:14.108Z,18.64
2022-09-13T03:08:14.089Z,16.06
2022-09-13T03:09:14.076Z,18.32
2022-09-13T03:10:14.092Z,18.32
2022-09-13T03:11:14.048Z,18.00
2022-09-13T03:12:14.041Z,19.61
2022-09-13T03:13:14.023Z,16.71
2022-09-13T03:14:14.016Z,20.25
2022-09-13T03:15:13.999Z,19.61
2022-09-13T03:16:14.043Z,17.68
2022-09-13T03:17:13.969Z,16.39
2022-09-13T03:18:13.958Z,17.68
2022-09-13T03:19:13.940Z,17.35
2022-09-13T03:20:13.930Z,15.42
2022-09-13T03:21:13.932Z,18.00
2022-09-13T03:22:13.900Z,18.00
2022-09-13T03:23:13.891Z,17.68
2022-09-13T03:24:13.873Z,18.64
2022-09-13T03:25:13.856Z,17.35
2022-09-13T03:26:13.849Z,16.71
2022-09-13T03:27:13.831Z,16.71
2022-09-13T03:28:13.820Z,17.68
2022-09-13T03:29:13.809Z,18.32
2022-09-13T03:30:13.792Z,16.06
2022-09-13T03:31:14.564Z,17.68
2022-09-13T03:32:13.801Z,18.00
2022-09-13T03:33:13.750Z,17.35
2022-09-13T03:34:13.736Z,17.35
2022-09-13T03:35:13.718Z,17.68
2022-09-13T03:36:13.907Z,16.06
2022-09-13T03:37:13.715Z,17.35
2022-09-13T03:38:13.687Z,18.00
2022-09-13T03:39:15.185Z,15.74
2022-09-13T03:40:13.728Z,18.00
2022-09-13T03:41:13.639Z,16.39
2022-09-13T03:42:13.629Z,15.74
2022-09-13T03:43:13.614Z,16.39
2022-09-13T03:44:13.604Z,18.00
2022-09-13T03:45:13.585Z,18.64
2022-09-13T03:46:13.637Z,16.39
2022-09-13T03:47:13.555Z,17.03
2022-09-13T03:48:13.553Z,19.29
2022-09-13T03:49:13.527Z,17.35
2022-09-13T03:50:13.519Z,16.39
2022-09-13T03:51:13.499Z,17.68
2022-09-13T03:52:13.488Z,18.64
2022-09-13T03:53:13.583Z,16.06
2022-09-13T03:54:13.466Z,18.00
2022-09-13T03:55:13.449Z,17.35
2022-09-13T03:56:13.436Z,15.74
2022-09-13T03:57:13.427Z,17.68
2022-09-13T03:58:13.411Z,16.71
2022-09-13T03:59:13.390Z,16.71
2022-09-13T04:00:13.384Z,18.00
2022-09-13T04:01:13.395Z,17.35
2022-09-13T04:02:13.424Z,15.42
2022-09-13T04:03:13.344Z,16.39
2022-09-13T04:04:13.329Z,15.74
2022-09-13T04:05:13.317Z,17.35
2022-09-13T04:06:13.299Z,16.06
2022-09-13T04:07:13.285Z,16.06
2022-09-13T04:08:13.281Z,19.93
2022-09-13T04:09:13.294Z,16.39
2022-09-13T04:10:13.962Z,17.68
2022-09-13T04:11:13.241Z,19.61
2022-09-13T04:12:13.227Z,16.71
2022-09-13T04:13:13.215Z,18.96
2022-09-13T04:14:13.201Z,15.74
2022-09-13T04:15:13.180Z,17.35
2022-09-13T04:16:13.204Z,18.96
2022-09-13T04:17:13.166Z,18.32
2022-09-13T04:18:13.141Z,16.39
2022-09-13T04:19:13.130Z,19.61
2022-09-13T04:20:13.122Z,15.42
2022-09-13T04:21:13.108Z,16.71
2022-09-13T04:22:13.094Z,18.32
2022-09-13T04:23:13.070Z,17.35
2022-09-13T04:24:13.065Z,17.68
2022-09-13T04:25:13.067Z,16.06
2022-09-13T04:26:13.045Z,17.68
2022-09-13T04:27:13.019Z,18.32
2022-09-13T04:28:13.023Z,16.06
2022-09-13T04:29:13.059Z,15.74
2022-09-13T04:30:13.024Z,16.06
2022-09-13T04:31:13.056Z,16.06
2022-09-13T04:32:12.951Z,18.32
2022-09-13T04:33:12.932Z,17.03
2022-09-13T04:34:12.918Z,17.03
2022-09-13T04:35:12.906Z,16.39
2022-09-13T04:36:12.894Z,16.39
2022-09-13T04:37:12.872Z,17.03
2022-09-13T04:38:12.862Z,18.64
2022-09-13T04:39:12.849Z,16.71
2022-09-13T04:40:12.922Z,16.06
2022-09-13T04:41:12.840Z,15.74
2022-09-13T04:42:12.818Z,18.64
2022-09-13T04:43:12.794Z,18.00
2022-09-13T04:44:12.783Z,15.42
2022-09-13T04:45:12.768Z,17.68
2022-09-13T04:46:12.820Z,16.71
2022-09-13T04:47:12.742Z,17.35
2022-09-13T04:48:12.732Z,14.45
2022-09-13T04:49:12.712Z,14.13
2022-09-13T04:50:12.699Z,15.74
2022-09-13T04:51:12.686Z,18.32
2022-09-13T04:52:12.682Z,15.74
2022-09-13T04:53:12.658Z,18.00
2022-09-13T04:54:15.436Z,17.35
2022-09-13T04:55:12.631Z,19.61
2022-09-13T04:56:12.616Z,16.71
2022-09-13T04:57:12.709Z,16.39
2022-09-13T04:58:12.596Z,16.39
2022-09-13T04:59:12.578Z,17.35
2022-09-13T05:00:12.573Z,17.03
2022-09-13T05:01:12.608Z,16.06
2022-09-13T05:02:12.594Z,16.06
2022-09-13T05:03:12.523Z,16.71
2022-09-13T05:04:12.510Z,18.64
2022-09-13T05:05:12.498Z,16.06
2022-09-13T05:06:12.482Z,15.42
2022-09-13T05:07:12.469Z,16.06
2022-09-13T05:08:12.456Z,17.35
2022-09-13T05:09:12.438Z,18.00
2022-09-13T05:10:15.226Z,18.32
2022-09-13T05:11:13.445Z,17.68
2022-09-13T05:12:12.397Z,16.71
2022-09-13T05:13:12.510Z,15.42
2022-09-13T05:14:12.374Z,17.03
2022-09-13T05:15:12.356Z,17.68
2022-09-13T05:16:12.391Z,15.42
2022-09-13T05:17:12.332Z,15.74
2022-09-13T05:18:12.319Z,16.39
2022-09-13T05:19:12.308Z,17.35
2022-09-13T05:20:12.294Z,16.71
2022-09-13T05:21:12.275Z,15.42
2022-09-13T05:22:12.267Z,18.64
2022-09-13T05:23:12.250Z,14.78
2022-09-13T05:24:12.242Z,18.32
2022-09-13T05:25:12.222Z,16.71
2022-09-13T05:26:12.210Z,16.06
2022-09-13T05:27:12.197Z,17.35
2022-09-13T05:28:12.191Z,17.35
2022-09-13T05:29:12.265Z,17.35
2022-09-13T05:30:12.161Z,15.74
2022-09-13T05:31:12.196Z,15.74
2022-09-13T05:32:12.139Z,17.68
2022-09-13T05:33:12.116Z,15.10
2022-09-13T05:34:12.098Z,15.42
2022-09-13T05:35:12.093Z,18.00
2022-09-13T05:36:12.074Z,17.03
2022-09-13T05:37:12.054Z,15.42
2022-09-13T05:38:12.059Z,18.00
2022-09-13T05:39:29.799Z,17.35
2022-09-13T05:40:13.151Z,16.39
2022-09-13T05:41:12.011Z,17.35
2022-09-13T05:42:11.999Z,16.71
2022-09-13T05:43:11.978Z,16.06
2022-09-13T05:44:13.602Z,18.32
2022-09-13T05:45:11.972Z,16.39
2022-09-13T05:46:12.079Z,15.42
2022-09-13T05:47:11.970Z,15.74
2022-09-13T05:48:11.910Z,15.74
2022-09-13T05:49:11.898Z,15.74
2022-09-13T05:50:22.919Z,17.35
2022-09-13T05:51:12.890Z,18.64
2022-09-13T05:52:11.903Z,16.39
2022-09-13T05:53:11.840Z,16.06
2022-09-13T05:54:11.828Z,17.68
2022-09-13T05:55:11.810Z,15.42
2022-09-13T05:56:16.377Z,17.68
2022-09-13T05:57:11.785Z,15.42
2022-09-13T05:58:11.780Z,15.10
2022-09-13T05:59:11.758Z,14.78
2022-09-13T06:00:11.752Z,15.42
2022-09-13T06:01:11.754Z,16.71
2022-09-13T06:02:11.739Z,16.39
2022-09-13T06:03:11.705Z,16.71
2022-09-13T06:04:11.694Z,16.71
2022-09-13T06:05:11.677Z,18.64
2022-09-13T06:06:11.669Z,15.74
2022-09-13T06:07:11.648Z,16.71
2022-09-13T06:08:11.645Z,15.74
2022-09-13T06:09:11.622Z,17.03
2022-09-13T06:10:11.616Z,16.06
2022-09-13T06:11:11.601Z,16.39
2022-09-13T06:12:11.589Z,16.71
2022-09-13T06:13:11.569Z,17.35
2022-09-13T06:14:11.555Z,14.78
2022-09-13T06:15:11.623Z,16.71
2022-09-13T06:16:11.633Z,15.42
2022-09-13T06:17:11.618Z,16.39
2022-09-13T06:18:11.504Z,16.71
2022-09-13T06:19:11.498Z,16.06
2022-09-13T06:20:11.506Z,16.39
2022-09-13T06:21:11.467Z,18.32
2022-09-13T06:22:11.453Z,16.06
2022-09-13T06:23:11.435Z,19.29
2022-09-13T06:24:11.424Z,17.35
2022-09-13T06:25:11.406Z,15.42
2022-09-13T06:26:11.391Z,15.42
2022-09-13T06:27:11.382Z,14.78
2022-09-13T06:28:11.665Z,17.68
2022-09-13T06:29:11.353Z,17.35
2022-09-13T06:30:11.342Z,16.71
2022-09-13T06:31:11.368Z,17.35
2022-09-13T06:32:11.318Z,17.35
2022-09-13T06:33:11.319Z,16.06
2022-09-13T06:34:11.290Z,15.42
2022-09-13T06:35:11.272Z,17.03
2022-09-13T06:36:11.259Z,16.39
2022-09-13T06:37:11.242Z,17.68
2022-09-13T06:38:11.229Z,14.78
2022-09-13T06:39:11.219Z,16.71
2022-09-13T06:40:11.378Z,15.10
2022-09-13T06:41:11.187Z,16.06
2022-09-13T06:42:11.180Z,16.06
2022-09-13T06:43:11.166Z,15.42
2022-09-13T06:44:11.150Z,16.71
2022-09-13T06:45:11.142Z,17.03
2022-09-13T06:46:11.159Z,18.96
2022-09-13T06:47:11.111Z,15.74
2022-09-13T06:48:11.093Z,17.35
2022-09-13T06:49:11.107Z,16.06
2022-09-13T06:50:11.068Z,17.35
2022-09-13T06:51:11.061Z,16.39
2022-09-13T06:52:11.043Z,16.71
2022-09-13T06:53:11.031Z,16.39
2022-09-13T06:54:11.016Z,15.74
2022-09-13T06:55:12.824Z,16.06
2022-09-13T06:56:10.987Z,17.35
2022-09-13T06:57:10.979Z,15.10
2022-09-13T06:58:10.959Z,15.74
2022-09-13T06:59:10.947Z,17.68
2022-09-13T07:00:10.929Z,15.42
2022-09-13T07:01:10.988Z,16.06
2022-09-13T07:02:10.968Z,14.13
2022-09-13T07:03:10.896Z,16.39
2022-09-13T07:04:10.878Z,18.32
2022-09-13T07:05:10.902Z,16.39
2022-09-13T07:06:10.848Z,18.00
2022-09-13T07:07:10.839Z,15.10
2022-09-13T07:08:10.821Z,17.35
2022-09-13T07:09:10.816Z,16.39
2022-09-13T07:10:10.798Z,17.03
2022-09-13T07:11:10.790Z,18.00
2022-09-13T07:12:10.771Z,18.32
2022-09-13T07:13:10.763Z,16.06
2022-09-13T07:14:10.744Z,15.74
2022-09-13T07:15:10.732Z,15.74
2022-09-13T07:16:10.780Z,17.68
2022-09-13T07:17:10.706Z,15.74
2022-09-13T07:18:10.692Z,18.00
2022-09-13T07:19:10.683Z,16.06
2022-09-13T07:20:10.667Z,16.39
2022-09-13T07:21:10.765Z,16.06
2022-09-13T07:22:10.640Z,16.06
2022-09-13T07:23:14.737Z,16.06
2022-09-13T07:24:10.615Z,17.35
2022-09-13T07:25:10.599Z,16.71
2022-09-13T07:26:10.589Z,15.42
2022-09-13T07:27:10.576Z,17.35
2022-09-13T07:28:10.561Z,16.71
2022-09-13T07:29:10.552Z,18.00
2022-09-13T07:30:10.538Z,16.06
2022-09-13T07:31:10.623Z,16.71
2022-09-13T07:32:10.509Z,17.35
2022-09-13T07:33:10.700Z,16.39
2022-09-13T07:34:10.483Z,15.74
2022-09-13T07:35:10.472Z,17.68
2022-09-13T07:36:10.461Z,16.71
2022-09-13T07:37:10.515Z,16.39
2022-09-13T07:38:10.433Z,17.68
2022-09-13T07:39:14.876Z,16.39
2022-09-13T07:40:11.608Z,16.06
2022-09-13T07:41:10.394Z,16.71
2022-09-13T07:42:10.376Z,17.35
2022-09-13T07:43:10.369Z,16.71
2022-09-13T07:44:10.350Z,17.68
2022-09-13T07:45:10.350Z,17.03
2022-09-13T07:46:10.381Z,17.03
2022-09-13T07:47:10.317Z,16.71
2022-09-13T07:48:10.303Z,16.39
2022-09-13T07:49:10.302Z,16.39
2022-09-13T07:50:10.278Z,16.39
2022-09-13T07:51:10.267Z,17.68
2022-09-13T07:52:10.250Z,17.35
2022-09-13T07:53:10.301Z,17.68
2022-09-13T07:54:10.221Z,15.42
2022-09-13T07:55:10.214Z,17.03
2022-09-13T07:56:10.200Z,18.96
2022-09-13T07:57:10.184Z,16.71
2022-09-13T07:58:10.177Z,18.64
2022-09-13T07:59:10.167Z,18.00
2022-09-13T08:00:10.150Z,18.00
2022-09-13T08:01:10.174Z,18.32
2022-09-13T08:02:10.198Z,14.13
2022-09-13T08:03:10.113Z,17.03
2022-09-13T08:04:10.096Z,16.71
2022-09-13T08:05:10.085Z,16.06
2022-09-13T08:06:10.073Z,17.68
2022-09-13T08:07:10.065Z,18.00
2022-09-13T08:08:10.049Z,16.71
2022-09-13T08:09:10.057Z,18.32
2022-09-13T08:10:10.018Z,17.03
2022-09-13T08:11:10.010Z,19.29
2022-09-13T08:12:09.989Z,17.35
2022-09-13T08:13:09.983Z,18.64
2022-09-13T08:14:09.969Z,18.96
2022-09-13T08:15:09.958Z,18.32
2022-09-13T08:16:09.988Z,18.96
2022-09-13T08:17:09.936Z,17.68
2022-09-13T08:18:09.911Z,18.64
2022-09-13T08:19:09.903Z,16.39
2022-09-13T08:20:10.541Z,18.96
2022-09-13T08:21:09.876Z,18.32
2022-09-13T08:22:09.861Z,17.03
2022-09-13T08:23:09.857Z,17.68
2022-09-13T08:24:09.834Z,17.68
2022-09-13T08:25:09.844Z,18.64
2022-09-13T08:26:09.814Z,17.68
2022-09-13T08:27:09.809Z,17.68
2022-09-13T08:28:09.791Z,18.96
2022-09-13T08:29:09.781Z,18.00
2022-09-13T08:30:09.761Z,18.00
2022-09-13T08:31:09.822Z,16.71
2022-09-13T08:32:09.735Z,17.03
2022-09-13T08:33:09.730Z,18.32
2022-09-13T08:34:09.705Z,16.71
2022-09-13T08:35:09.697Z,17.35
2022-09-13T08:36:09.680Z,18.00
2022-09-13T08:37:09.676Z,16.71
2022-09-13T08:38:09.903Z,19.29
2022-09-13T08:39:09.647Z,17.68
2022-09-13T08:40:09.701Z,18.64
2022-09-13T08:41:09.642Z,18.32
2022-09-13T08:42:09.611Z,21.22
2022-09-13T08:43:09.598Z,18.32
2022-09-13T08:44:09.582Z,17.68
2022-09-13T08:45:09.585Z,18.64
2022-09-13T08:46:09.635Z,17.35
2022-09-13T08:47:09.541Z,18.96
2022-09-13T08:48:09.528Z,17.68
2022-09-13T08:49:13.003Z,17.35
2022-09-13T08:50:10.534Z,18.00
2022-09-13T08:51:09.500Z,18.00
2022-09-13T08:52:09.483Z,17.68
2022-09-13T08:53:09.477Z,18.00
2022-09-13T08:54:09.455Z,18.96
2022-09-13T08:55:09.449Z,18.32
2022-09-13T08:56:09.430Z,17.68
2022-09-13T08:57:09.449Z,18.32
2022-09-13T08:58:09.406Z,17.68
2022-09-13T08:59:09.397Z,18.32
2022-09-13T09:00:09.382Z,17.68
2022-09-13T09:01:09.403Z,17.35
2022-09-13T09:02:09.398Z,18.00
2022-09-13T09:03:09.349Z,17.03
2022-09-13T09:04:09.335Z,18.64
2022-09-13T09:05:09.328Z,19.61
2022-09-13T09:06:09.310Z,18.96
2022-09-13T09:07:09.300Z,19.29
2022-09-13T09:08:09.291Z,18.32
2022-09-13T09:09:09.277Z,18.96
2022-09-13T09:10:09.265Z,19.93
2022-09-13T09:11:09.252Z,19.29
2022-09-13T09:12:09.240Z,16.71
2022-09-13T09:13:09.251Z,17.35
2022-09-13T09:14:09.208Z,18.00
2022-09-13T09:15:09.202Z,18.96
2022-09-13T09:16:09.226Z,19.61
2022-09-13T09:17:09.174Z,18.64
2022-09-13T09:18:09.166Z,19.61
2022-09-13T09:19:09.157Z,18.32
2022-09-13T09:20:09.148Z,19.61
2022-09-13T09:21:09.136Z,18.96
2022-09-13T09:22:09.112Z,18.96
2022-09-13T09:23:09.106Z,17.68
2022-09-13T09:24:09.089Z,18.32
2022-09-13T09:25:09.086Z,19.61
2022-09-13T09:26:09.065Z,18.00
2022-09-13T09:27:09.057Z,19.93
2022-09-13T09:28:09.046Z,19.29
2022-09-13T09:29:09.054Z,19.29
2022-09-13T09:30:09.025Z,18.96
2022-09-13T09:31:09.102Z,18.32
2022-09-13T09:32:09.001Z,20.25
2022-09-13T09:33:08.995Z,19.29
2022-09-13T09:34:08.980Z,18.00
2022-09-13T09:35:08.994Z,18.64
2022-09-13T09:36:08.957Z,19.61
2022-09-13T09:37:08.943Z,18.00
2022-09-13T09:38:08.927Z,19.29
2022-09-13T09:39:08.929Z,19.93
2022-09-13T09:40:08.971Z,18.32
2022-09-13T09:41:08.897Z,19.29
2022-09-13T09:42:08.880Z,20.58
2022-09-13T09:43:09.174Z,17.68
2022-09-13T09:44:08.857Z,19.61
2022-09-13T09:45:08.868Z,18.32
2022-09-13T09:46:08.878Z,19.29
2022-09-13T09:47:08.832Z,19.29
2022-09-13T09:48:08.822Z,20.58
2022-09-13T09:49:08.811Z,20.25
2022-09-13T09:50:08.789Z,18.96
2022-09-13T09:51:08.780Z,19.93
2022-09-13T09:52:08.765Z,18.64
2022-09-13T09:53:08.763Z,19.93
2022-09-13T09:54:08.747Z,19.93
2022-09-13T09:55:08.741Z,18.32
2022-09-13T09:56:08.729Z,20.25
2022-09-13T09:57:08.722Z,20.58
2022-09-13T09:58:08.713Z,18.96
2022-09-13T09:59:08.694Z,20.25
2022-09-13T10:00:08.675Z,19.29
2022-09-13T10:01:11.349Z,19.29
2022-09-13T10:02:08.703Z,19.93
2022-09-13T10:03:08.642Z,19.29
2022-09-13T10:04:08.728Z,18.32
2022-09-13T10:05:08.620Z,18.96
2022-09-13T10:06:08.655Z,18.00
2022-09-13T10:07:11.504Z,18.32
2022-09-13T10:08:09.603Z,20.90
2022-09-13T10:09:08.573Z,20.25
2022-09-13T10:10:08.569Z,18.32
2022-09-13T10:11:08.553Z,20.90
2022-09-13T10:12:08.537Z,17.68
2022-09-13T10:13:08.526Z,19.29
2022-09-13T10:14:08.667Z,19.29
2022-09-13T10:15:08.511Z,18.32
2022-09-13T10:16:08.489Z,19.29
2022-09-13T10:17:08.590Z,17.68
2022-09-13T10:18:26.442Z,18.32
2022-09-13T10:19:11.531Z,19.93
2022-09-13T10:20:08.438Z,19.93
2022-09-13T10:21:08.432Z,19.29
2022-09-13T10:22:08.423Z,19.61
2022-09-13T10:23:08.415Z,18.96
2022-09-13T10:24:08.398Z,18.96
2022-09-13T10:25:08.390Z,18.64
2022-09-13T10:26:08.376Z,18.96
2022-09-13T10:27:08.389Z,18.64
2022-09-13T10:28:08.349Z,19.61
2022-09-13T10:29:08.341Z,19.93
2022-09-13T10:30:08.329Z,20.58
2022-09-13T10:31:08.359Z,18.96
2022-09-13T10:32:08.304Z,20.58
2022-09-13T10:33:08.315Z,18.32
2022-09-13T10:34:08.288Z,19.93
2022-09-13T10:35:08.281Z,18.32
2022-09-13T10:36:08.264Z,18.64
2022-09-13T10:37:08.254Z,18.64
2022-09-13T10:38:08.240Z,19.93
2022-09-13T10:39:08.226Z,19.93
2022-09-13T10:40:08.278Z,19.61
2022-09-13T10:41:08.205Z,18.64
2022-09-13T10:42:08.187Z,20.25
2022-09-13T10:43:08.192Z,19.29
2022-09-13T10:44:09.867Z,20.25
2022-09-13T10:45:08.456Z,19.29
2022-09-13T10:46:08.170Z,19.29
2022-09-13T10:47:08.130Z,20.58
2022-09-13T10:48:08.120Z,18.96
2022-09-13T10:49:08.214Z,20.25
2022-09-13T10:50:08.098Z,22.19
2022-09-13T10:51:08.090Z,19.61
2022-09-13T10:52:12.607Z,19.29
2022-09-13T10:53:09.086Z,18.00
2022-09-13T10:54:08.058Z,19.61
2022-09-13T10:55:08.038Z,19.61
2022-09-13T10:56:08.031Z,20.58
2022-09-13T10:57:08.018Z,18.96
2022-09-13T10:58:08.000Z,18.96
2022-09-13T10:59:07.983Z,19.61
2022-09-13T11:00:07.978Z,19.61
2022-09-13T11:01:08.007Z,19.61
2022-09-13T11:02:07.953Z,17.68
2022-09-13T11:03:07.935Z,20.25
2022-09-13T11:04:08.018Z,18.96
2022-09-13T11:05:08.016Z,19.61
2022-09-13T11:06:07.904Z,20.90
2022-09-13T11:07:07.889Z,19.93
2022-09-13T11:08:07.882Z,18.64
2022-09-13T11:09:07.866Z,21.22
2022-09-13T11:10:07.858Z,20.90
2022-09-13T11:11:07.839Z,19.93
2022-09-13T11:12:07.831Z,23.15
2022-09-13T11:13:07.820Z,20.25
2022-09-13T11:14:07.802Z,21.87
2022-09-13T11:15:07.790Z,18.96
2022-09-13T11:16:07.827Z,18.96
2022-09-13T11:17:07.761Z,20.58
2022-09-13T11:18:07.753Z,20.90
2022-09-13T11:19:07.739Z,21.54
2022-09-13T11:20:07.731Z,18.96
2022-09-13T11:21:07.820Z,20.25
2022-09-13T11:22:07.709Z,20.90
2022-09-13T11:23:07.692Z,19.61
2022-09-13T11:24:07.685Z,19.93
2022-09-13T11:25:07.666Z,20.90
2022-09-13T11:26:07.652Z,21.54
2022-09-13T11:27:07.640Z,19.93
2022-09-13T11:28:07.627Z,20.58
2022-09-13T11:29:07.614Z,19.61
2022-09-13T11:30:07.623Z,20.25
2022-09-13T11:31:07.593Z,20.58
2022-09-13T11:32:07.642Z,20.90
2022-09-13T11:33:07.570Z,19.93
2022-09-13T11:34:07.560Z,19.93
2022-09-13T11:35:07.543Z,21.54
2022-09-13T11:36:07.544Z,20.25
2022-09-13T11:37:07.598Z,20.25
2022-09-13T11:38:07.512Z,20.58
2022-09-13T11:39:07.506Z,20.25
2022-09-13T11:40:07.535Z,19.93
2022-09-13T11:41:07.467Z,19.61
2022-09-13T11:42:07.464Z,20.25
2022-09-13T11:43:07.448Z,20.25
2022-09-13T11:44:07.437Z,19.93
2022-09-13T11:45:07.425Z,20.58
2022-09-13T11:46:07.500Z,19.93
2022-09-13T11:47:07.758Z,20.25
2022-09-13T11:48:07.391Z,20.58
2022-09-13T11:49:07.381Z,19.93
2022-09-13T11:50:07.373Z,22.19
2022-09-13T11:51:07.354Z,20.90
2022-09-13T11:52:07.346Z,20.58
2022-09-13T11:53:07.349Z,21.87
2022-09-13T11:54:07.319Z,20.25
2022-09-13T11:55:07.304Z,20.25
2022-09-13T11:56:07.297Z,20.90
2022-09-13T11:57:07.280Z,21.22
2022-09-13T11:58:07.277Z,19.93
2022-09-13T11:59:07.263Z,19.29
2022-09-13T12:00:07.360Z,19.93
2022-09-13T12:01:07.237Z,21.54
2022-09-13T12:02:07.303Z,20.25
2022-09-13T12:03:07.408Z,19.61
2022-09-13T12:04:07.200Z,21.22
2022-09-13T12:05:23.700Z,20.58
2022-09-13T12:06:08.201Z,20.90
2022-09-13T12:07:07.168Z,20.90
2022-09-13T12:08:07.171Z,20.90
2022-09-13T12:09:07.247Z,21.87
2022-09-13T12:10:07.250Z,20.90
2022-09-13T12:11:07.145Z,20.25
2022-09-13T12:12:07.117Z,21.87
2022-09-13T12:13:07.192Z,21.87
2022-09-13T12:14:07.112Z,20.58
2022-09-13T12:15:07.080Z,20.90
2022-09-13T12:16:07.249Z,21.22
2022-09-13T12:17:07.061Z,22.19
2022-09-13T12:18:07.057Z,20.25
2022-09-13T12:19:07.054Z,20.90
2022-09-13T12:20:07.025Z,21.87
2022-09-13T12:21:07.005Z,20.58
2022-09-13T12:22:07.004Z,20.90
2022-09-13T12:23:06.987Z,20.90
2022-09-13T12:24:06.978Z,20.58
2022-09-13T12:25:06.977Z,21.22
2022-09-13T12:26:06.954Z,22.83
2022-09-13T12:27:06.942Z,20.90
2022-09-13T12:28:06.933Z,18.00
2022-09-13T12:29:06.917Z,21.22
2022-09-13T12:30:06.907Z,20.58
2022-09-13T12:31:06.889Z,21.87
2022-09-13T12:32:06.951Z,20.58
2022-09-13T12:33:06.868Z,19.29
2022-09-13T12:34:06.874Z,20.25
2022-09-13T12:35:06.844Z,20.58
2022-09-13T12:36:06.839Z,22.19
2022-09-13T12:37:06.820Z,20.90
2022-09-13T12:38:06.814Z,22.19
2022-09-13T12:39:06.800Z,19.93
2022-09-13T12:40:06.833Z,20.58
2022-09-13T12:41:06.796Z,23.48
2022-09-13T12:42:06.761Z,21.22
2022-09-13T12:43:06.761Z,21.87
2022-09-13T12:44:06.737Z,20.90
2022-09-13T12:45:06.723Z,21.22
2022-09-13T12:46:06.778Z,21.87
2022-09-13T12:47:06.704Z,21.22
2022-09-13T12:48:06.696Z,21.22
2022-09-13T12:49:06.673Z,21.22
2022-09-13T12:50:22.631Z,19.61
2022-09-13T12:51:07.680Z,20.90
2022-09-13T12:52:06.644Z,19.93
2022-09-13T12:53:06.628Z,21.54